sensor_id;sensor_type;location;lat;lon;timestamp;temperature;humidity
76759;DHT22;65701;45.588;5.186;2023-06-01T05:30:33;17.17;73.05
76759;DHT22;65701;45.588;5.186;2023-06-01T05:33:01;17.33;73.14
76759;DHT22;65701;45.588;5.186;2023-06-01T05:35:27;17.47;73.32
76759;DHT22;65701;45.588;5.186;2023-06-01T05:37:52;17.61;73.31
76759;DHT22;65701;45.588;5.186;2023-06-01T05:40:18;17.72;73.55
76759;DHT22;65701;45.588;5.186;2023-06-01T05:42:44;17.86;73.26
76759;DHT22;65701;45.588;5.186;2023-06-01T05:45:10;17.95;72.54
76759;DHT22;65701;45.588;5.186;2023-06-01T05:47:35;18.03;72.25
76759;DHT22;65701;45.588;5.186;2023-06-01T05:50:01;18.10;72.16
76759;DHT22;65701;45.588;5.186;2023-06-01T05:52:27;18.24;72.48
76759;DHT22;65701;45.588;5.186;2023-06-01T05:54:53;18.37;72.97
76759;DHT22;65701;45.588;5.186;2023-06-01T05:57:19;18.50;73.20
76759;DHT22;65701;45.588;5.186;2023-06-01T05:59:45;18.61;73.28
76759;DHT22;65701;45.588;5.186;2023-06-01T06:02:12;18.79;73.44
76759;DHT22;65701;45.588;5.186;2023-06-01T06:04:38;18.94;73.14
76759;DHT22;65701;45.588;5.186;2023-06-01T06:07:03;19.07;72.56
76759;DHT22;65701;45.588;5.186;2023-06-01T06:09:29;19.20;72.18
76759;DHT22;65701;45.588;5.186;2023-06-01T06:11:55;19.34;72.25
76759;DHT22;65701;45.588;5.186;2023-06-01T06:14:20;19.49;72.11
76759;DHT22;65701;45.588;5.186;2023-06-01T06:16:46;19.64;71.85
76759;DHT22;65701;45.588;5.186;2023-06-01T06:19:11;19.67;70.94
76759;DHT22;65701;45.588;5.186;2023-06-01T06:21:37;19.78;70.73
76759;DHT22;65701;45.588;5.186;2023-06-01T06:24:03;19.93;70.91
76759;DHT22;65701;45.588;5.186;2023-06-01T06:26:29;20.06;70.55
76759;DHT22;65701;45.588;5.186;2023-06-01T06:28:54;20.20;71.05
76759;DHT22;65701;45.588;5.186;2023-06-01T06:31:20;20.30;69.96
76759;DHT22;65701;45.588;5.186;2023-06-01T06:33:47;20.43;69.92
76759;DHT22;65701;45.588;5.186;2023-06-01T06:36:12;20.51;69.98
76759;DHT22;65701;45.588;5.186;2023-06-01T06:38:38;20.61;69.74
76759;DHT22;65701;45.588;5.186;2023-06-01T06:41:18;20.71;69.13
76759;DHT22;65701;45.588;5.186;2023-06-01T06:43:44;20.84;69.15
76759;DHT22;65701;45.588;5.186;2023-06-01T06:46:09;20.98;69.39
76759;DHT22;65701;45.588;5.186;2023-06-01T06:48:35;21.13;69.35
76759;DHT22;65701;45.588;5.186;2023-06-01T06:51:02;21.36;69.65
76759;DHT22;65701;45.588;5.186;2023-06-01T06:53:28;21.57;70.24
76759;DHT22;65701;45.588;5.186;2023-06-01T06:55:53;21.73;69.40
76759;DHT22;65701;45.588;5.186;2023-06-01T06:58:19;21.88;68.97
76759;DHT22;65701;45.588;5.186;2023-06-01T07:00:44;22.02;68.28
76759;DHT22;65701;45.588;5.186;2023-06-01T07:03:10;22.09;67.21
76759;DHT22;65701;45.588;5.186;2023-06-01T07:05:36;22.12;66.55
76759;DHT22;65701;45.588;5.186;2023-06-01T07:08:01;22.08;66.06
76759;DHT22;65701;45.588;5.186;2023-06-01T07:10:27;22.23;66.85
76759;DHT22;65701;45.588;5.186;2023-06-01T07:12:52;22.28;65.93
76759;DHT22;65701;45.588;5.186;2023-06-01T07:15:18;22.43;65.89
76759;DHT22;65701;45.588;5.186;2023-06-01T07:17:43;22.50;66.11
76759;DHT22;65701;45.588;5.186;2023-06-01T07:20:09;22.56;65.43
76759;DHT22;65701;45.588;5.186;2023-06-01T07:22:38;22.70;65.28
76759;DHT22;65701;45.588;5.186;2023-06-01T07:25:05;22.80;65.80
76759;DHT22;65701;45.588;5.186;2023-06-01T07:27:31;22.91;65.52
76759;DHT22;65701;45.588;5.186;2023-06-01T07:29:57;22.92;64.97
76759;DHT22;65701;45.588;5.186;2023-06-01T07:32:23;23.07;65.71
76759;DHT22;65701;45.588;5.186;2023-06-01T07:34:49;23.16;64.94
76759;DHT22;65701;45.588;5.186;2023-06-01T07:37:15;23.22;64.51
76759;DHT22;65701;45.588;5.186;2023-06-01T07:39:40;23.27;64.87
76759;DHT22;65701;45.588;5.186;2023-06-01T07:42:06;23.33;64.61
76759;DHT22;65701;45.588;5.186;2023-06-01T07:44:32;23.38;63.85
76759;DHT22;65701;45.588;5.186;2023-06-01T07:46:58;23.39;63.62
76759;DHT22;65701;45.588;5.186;2023-06-01T07:49:24;23.47;63.79
76759;DHT22;65701;45.588;5.186;2023-06-01T07:51:50;23.47;63.92
76759;DHT22;65701;45.588;5.186;2023-06-01T07:54:17;23.47;63.11
76759;DHT22;65701;45.588;5.186;2023-06-01T07:56:43;23.67;63.63
76759;DHT22;65701;45.588;5.186;2023-06-01T07:59:08;23.77;63.61
76759;DHT22;65701;45.588;5.186;2023-06-01T08:01:34;23.77;63.23
76759;DHT22;65701;45.588;5.186;2023-06-01T08:03:59;23.85;63.01
76759;DHT22;65701;45.588;5.186;2023-06-01T08:06:27;23.91;62.71
76759;DHT22;65701;45.588;5.186;2023-06-01T08:08:52;23.96;62.30
76759;DHT22;65701;45.588;5.186;2023-06-01T08:11:18;24.08;62.70
76759;DHT22;65701;45.588;5.186;2023-06-01T08:13:44;24.24;62.63
76759;DHT22;65701;45.588;5.186;2023-06-01T08:16:14;24.36;62.34
76759;DHT22;65701;45.588;5.186;2023-06-01T08:18:40;24.51;62.15
76759;DHT22;65701;45.588;5.186;2023-06-01T08:21:05;24.69;62.09
76759;DHT22;65701;45.588;5.186;2023-06-01T08:23:34;24.83;61.71
76759;DHT22;65701;45.588;5.186;2023-06-01T08:25:59;24.98;61.92
76759;DHT22;65701;45.588;5.186;2023-06-01T08:28:25;25.04;61.14
76759;DHT22;65701;45.588;5.186;2023-06-01T08:30:50;25.10;60.52
76759;DHT22;65701;45.588;5.186;2023-06-01T08:33:16;25.14;60.72
76759;DHT22;65701;45.588;5.186;2023-06-01T08:35:41;25.25;59.94
76759;DHT22;65701;45.588;5.186;2023-06-01T08:38:07;25.32;59.54
76759;DHT22;65701;45.588;5.186;2023-06-01T08:40:32;25.39;59.66
76759;DHT22;65701;45.588;5.186;2023-06-01T08:43:19;25.59;60.28
76759;DHT22;65701;45.588;5.186;2023-06-01T08:45:45;25.74;59.85
76759;DHT22;65701;45.588;5.186;2023-06-01T08:48:16;25.84;58.75
76759;DHT22;65701;45.588;5.186;2023-06-01T08:50:47;25.93;58.72
76759;DHT22;65701;45.588;5.186;2023-06-01T08:53:17;26.05;58.39
76759;DHT22;65701;45.588;5.186;2023-06-01T08:55:44;26.08;57.07
76759;DHT22;65701;45.588;5.186;2023-06-01T08:58:12;26.13;57.51
76759;DHT22;65701;45.588;5.186;2023-06-01T09:00:38;26.20;58.18
76759;DHT22;65701;45.588;5.186;2023-06-01T09:03:04;26.28;58.59
76759;DHT22;65701;45.588;5.186;2023-06-01T09:05:30;26.35;57.70
76759;DHT22;65701;45.588;5.186;2023-06-01T09:07:56;26.45;57.44
76759;DHT22;65701;45.588;5.186;2023-06-01T09:10:23;26.60;58.43
76759;DHT22;65701;45.588;5.186;2023-06-01T09:12:52;26.75;58.05
76759;DHT22;65701;45.588;5.186;2023-06-01T09:15:18;26.91;58.17
76759;DHT22;65701;45.588;5.186;2023-06-01T09:17:46;27.06;57.26
76759;DHT22;65701;45.588;5.186;2023-06-01T09:20:13;27.15;57.58
76759;DHT22;65701;45.588;5.186;2023-06-01T09:22:44;27.27;57.28
76759;DHT22;65701;45.588;5.186;2023-06-01T09:25:11;27.39;57.34
76759;DHT22;65701;45.588;5.186;2023-06-01T09:30:09;27.37;54.86
76759;DHT22;65701;45.588;5.186;2023-06-01T09:32:34;27.32;54.83
76759;DHT22;65701;45.588;5.186;2023-06-01T09:38:03;27.17;52.58
76759;DHT22;65701;45.588;5.186;2023-06-01T09:40:32;27.15;52.74
76759;DHT22;65701;45.588;5.186;2023-06-01T09:42:58;27.24;53.70
76759;DHT22;65701;45.588;5.186;2023-06-01T09:45:23;27.32;54.47
76759;DHT22;65701;45.588;5.186;2023-06-01T09:51:24;27.59;54.78
76759;DHT22;65701;45.588;5.186;2023-06-01T09:53:54;27.70;54.38
76759;DHT22;65701;45.588;5.186;2023-06-01T09:56:20;27.78;54.83
76759;DHT22;65701;45.588;5.186;2023-06-01T09:58:45;27.80;53.96
76759;DHT22;65701;45.588;5.186;2023-06-01T10:01:13;27.90;54.05
76759;DHT22;65701;45.588;5.186;2023-06-01T10:03:42;27.98;54.20
76759;DHT22;65701;45.588;5.186;2023-06-01T10:06:10;27.93;53.80
76759;DHT22;65701;45.588;5.186;2023-06-01T10:08:36;27.73;53.56
76759;DHT22;65701;45.588;5.186;2023-06-01T10:11:02;27.73;53.12
76759;DHT22;65701;45.588;5.186;2023-06-01T10:13:29;27.59;51.86
76759;DHT22;65701;45.588;5.186;2023-06-01T10:15:56;27.58;53.82
76759;DHT22;65701;45.588;5.186;2023-06-01T10:18:22;27.76;54.20
76759;DHT22;65701;45.588;5.186;2023-06-01T10:20:48;27.82;53.58
76759;DHT22;65701;45.588;5.186;2023-06-01T10:23:14;27.86;52.32
76759;DHT22;65701;45.588;5.186;2023-06-01T10:25:43;27.96;53.17
76759;DHT22;65701;45.588;5.186;2023-06-01T10:28:12;27.92;52.18
76759;DHT22;65701;45.588;5.186;2023-06-01T10:30:38;27.92;52.37
76759;DHT22;65701;45.588;5.186;2023-06-01T10:33:05;27.85;51.77
76759;DHT22;65701;45.588;5.186;2023-06-01T10:38:33;27.94;52.28
76759;DHT22;65701;45.588;5.186;2023-06-01T10:41:24;28.03;51.93
76759;DHT22;65701;45.588;5.186;2023-06-01T10:43:50;28.07;51.83
76759;DHT22;65701;45.588;5.186;2023-06-01T10:46:36;27.92;50.10
76759;DHT22;65701;45.588;5.186;2023-06-01T10:49:03;27.62;50.05
76759;DHT22;65701;45.588;5.186;2023-06-01T10:51:28;27.78;50.51
76759;DHT22;65701;45.588;5.186;2023-06-01T10:53:54;27.94;51.51
76759;DHT22;65701;45.588;5.186;2023-06-01T10:56:40;28.10;51.77
76759;DHT22;65701;45.588;5.186;2023-06-01T11:01:36;28.20;50.34
76759;DHT22;65701;45.588;5.186;2023-06-01T11:04:02;28.13;49.12
76759;DHT22;65701;45.588;5.186;2023-06-01T11:06:33;28.10;49.82
76759;DHT22;65701;45.588;5.186;2023-06-01T11:09:04;27.90;49.53
76759;DHT22;65701;45.588;5.186;2023-06-01T11:11:56;28.01;50.29
76759;DHT22;65701;45.588;5.186;2023-06-01T11:14:25;27.90;49.71
76759;DHT22;65701;45.588;5.186;2023-06-01T11:16:54;28.00;49.93
76759;DHT22;65701;45.588;5.186;2023-06-01T11:19:21;28.14;50.46
76759;DHT22;65701;45.588;5.186;2023-06-01T11:21:57;28.29;50.53
76759;DHT22;65701;45.588;5.186;2023-06-01T11:24:33;28.38;50.75
76759;DHT22;65701;45.588;5.186;2023-06-01T11:27:05;28.52;51.04
76759;DHT22;65701;45.588;5.186;2023-06-01T11:29:32;28.51;51.18
76759;DHT22;65701;45.588;5.186;2023-06-01T11:31:59;28.47;50.21
76759;DHT22;65701;45.588;5.186;2023-06-01T11:34:39;28.42;51.06
76759;DHT22;65701;45.588;5.186;2023-06-01T11:37:17;28.41;50.73
76759;DHT22;65701;45.588;5.186;2023-06-01T11:39:43;28.21;49.17
76759;DHT22;65701;45.588;5.186;2023-06-01T11:42:19;28.24;48.76
76759;DHT22;65701;45.588;5.186;2023-06-01T11:44:46;28.18;48.70
76759;DHT22;65701;45.588;5.186;2023-06-01T11:47:21;28.17;48.13
76759;DHT22;65701;45.588;5.186;2023-06-01T11:49:49;28.18;48.88
76759;DHT22;65701;45.588;5.186;2023-06-01T11:52:19;28.20;49.23
76759;DHT22;65701;45.588;5.186;2023-06-01T11:54:46;28.16;49.12
76759;DHT22;65701;45.588;5.186;2023-06-01T11:57:12;28.11;48.84
76759;DHT22;65701;45.588;5.186;2023-06-01T11:59:43;28.03;48.21
76759;DHT22;65701;45.588;5.186;2023-06-01T12:05:06;28.03;48.35
76759;DHT22;65701;45.588;5.186;2023-06-01T12:08:03;28.16;48.84
76759;DHT22;65701;45.588;5.186;2023-06-01T12:10:28;28.18;48.21
76759;DHT22;65701;45.588;5.186;2023-06-01T12:12:54;28.22;49.15
76759;DHT22;65701;45.588;5.186;2023-06-01T12:15:20;28.34;49.95
76759;DHT22;65701;45.588;5.186;2023-06-01T12:17:49;28.18;48.42
76759;DHT22;65701;45.588;5.186;2023-06-01T12:20:31;28.08;47.24
76759;DHT22;65701;45.588;5.186;2023-06-01T12:22:58;28.08;47.62
76759;DHT22;65701;45.588;5.186;2023-06-01T12:25:24;28.13;49.06
76759;DHT22;65701;45.588;5.186;2023-06-01T12:28:06;28.06;49.65
76759;DHT22;65701;45.588;5.186;2023-06-01T12:30:33;28.25;49.11
76759;DHT22;65701;45.588;5.186;2023-06-01T12:32:59;28.25;49.40
76759;DHT22;65701;45.588;5.186;2023-06-01T12:35:26;28.31;49.48
76759;DHT22;65701;45.588;5.186;2023-06-01T12:41:12;28.29;49.57
76759;DHT22;65701;45.588;5.186;2023-06-01T12:43:38;28.41;49.89
76759;DHT22;65701;45.588;5.186;2023-06-01T12:46:04;28.52;50.12
76759;DHT22;65701;45.588;5.186;2023-06-01T12:48:34;28.66;50.77
76759;DHT22;65701;45.588;5.186;2023-06-01T12:51:01;28.73;50.23
76759;DHT22;65701;45.588;5.186;2023-06-01T12:53:27;28.79;49.84
76759;DHT22;65701;45.588;5.186;2023-06-01T12:55:53;28.76;49.06
76759;DHT22;65701;45.588;5.186;2023-06-01T12:58:19;28.78;48.65
76759;DHT22;65701;45.588;5.186;2023-06-01T13:00:45;28.72;48.60
76759;DHT22;65701;45.588;5.186;2023-06-01T13:03:10;28.55;47.83
76759;DHT22;65701;45.588;5.186;2023-06-01T13:05:36;28.58;47.91
76759;DHT22;65701;45.588;5.186;2023-06-01T13:08:02;28.52;48.02
76759;DHT22;65701;45.588;5.186;2023-06-01T13:10:28;28.49;48.00
76759;DHT22;65701;45.588;5.186;2023-06-01T13:12:54;28.42;47.71
76759;DHT22;65701;45.588;5.186;2023-06-01T13:15:21;28.38;48.01
76759;DHT22;65701;45.588;5.186;2023-06-01T13:17:46;28.44;48.13
76759;DHT22;65701;45.588;5.186;2023-06-01T13:20:12;28.48;49.06
76759;DHT22;65701;45.588;5.186;2023-06-01T13:22:41;28.51;48.82
76759;DHT22;65701;45.588;5.186;2023-06-01T13:25:08;28.49;48.46
76759;DHT22;65701;45.588;5.186;2023-06-01T13:27:34;28.56;48.66
76759;DHT22;65701;45.588;5.186;2023-06-01T13:29:59;28.65;49.48
76759;DHT22;65701;45.588;5.186;2023-06-01T13:32:26;28.65;48.83
76759;DHT22;65701;45.588;5.186;2023-06-01T13:34:52;28.72;48.49
76759;DHT22;65701;45.588;5.186;2023-06-01T13:37:21;28.72;48.16
76759;DHT22;65701;45.588;5.186;2023-06-01T13:39:49;28.41;46.79
76759;DHT22;65701;45.588;5.186;2023-06-01T13:42:16;28.35;45.91
76759;DHT22;65701;45.588;5.186;2023-06-01T13:44:41;28.35;45.59
76759;DHT22;65701;45.588;5.186;2023-06-01T13:47:15;28.22;45.88
76759;DHT22;65701;45.588;5.186;2023-06-01T13:49:41;28.21;45.25
76759;DHT22;65701;45.588;5.186;2023-06-01T13:52:07;28.17;44.66
76759;DHT22;65701;45.588;5.186;2023-06-01T13:54:33;28.14;45.47
76759;DHT22;65701;45.588;5.186;2023-06-01T13:56:59;28.25;46.10
76759;DHT22;65701;45.588;5.186;2023-06-01T13:59:26;28.25;46.28
76759;DHT22;65701;45.588;5.186;2023-06-01T14:01:52;28.33;46.75
76759;DHT22;65701;45.588;5.186;2023-06-01T14:04:18;28.40;47.57
76759;DHT22;65701;45.588;5.186;2023-06-01T14:06:43;28.41;47.37
76759;DHT22;65701;45.588;5.186;2023-06-01T14:09:10;28.38;47.38
76759;DHT22;65701;45.588;5.186;2023-06-01T14:11:35;28.29;46.58
76759;DHT22;65701;45.588;5.186;2023-06-01T14:14:01;28.34;46.50
76759;DHT22;65701;45.588;5.186;2023-06-01T14:16:27;28.31;46.43
76759;DHT22;65701;45.588;5.186;2023-06-01T14:18:53;28.17;46.66
76759;DHT22;65701;45.588;5.186;2023-06-01T14:21:18;28.22;47.50
76759;DHT22;65701;45.588;5.186;2023-06-01T14:23:44;28.03;48.07
76759;DHT22;65701;45.588;5.186;2023-06-01T14:26:10;28.06;47.53
76759;DHT22;65701;45.588;5.186;2023-06-01T14:28:36;28.06;47.83
76759;DHT22;65701;45.588;5.186;2023-06-01T14:31:02;28.06;48.25
76759;DHT22;65701;45.588;5.186;2023-06-01T14:33:27;28.10;48.69
76759;DHT22;65701;45.588;5.186;2023-06-01T14:35:53;28.14;48.55
76759;DHT22;65701;45.588;5.186;2023-06-01T14:38:18;28.18;49.30
76759;DHT22;65701;45.588;5.186;2023-06-01T14:40:44;28.20;49.60
76759;DHT22;65701;45.588;5.186;2023-06-01T14:43:10;28.22;49.55
76759;DHT22;65701;45.588;5.186;2023-06-01T14:45:35;28.13;49.32
76759;DHT22;65701;45.588;5.186;2023-06-01T14:48:00;28.10;49.46
76759;DHT22;65701;45.588;5.186;2023-06-01T14:50:26;28.01;49.42
76759;DHT22;65701;45.588;5.186;2023-06-01T14:52:52;28.01;49.45
76759;DHT22;65701;45.588;5.186;2023-06-01T14:55:23;27.96;49.73
76759;DHT22;65701;45.588;5.186;2023-06-01T14:57:48;27.90;49.94
76759;DHT22;65701;45.588;5.186;2023-06-01T15:00:14;27.80;49.20
76759;DHT22;65701;45.588;5.186;2023-06-01T15:02:40;27.79;49.02
76759;DHT22;65701;45.588;5.186;2023-06-01T15:05:05;27.80;49.22
76759;DHT22;65701;45.588;5.186;2023-06-01T15:07:31;27.79;48.03
76759;DHT22;65701;45.588;5.186;2023-06-01T15:09:56;27.76;47.99
76759;DHT22;65701;45.588;5.186;2023-06-01T15:12:22;27.82;48.52
76759;DHT22;65701;45.588;5.186;2023-06-01T15:14:48;27.78;48.01
76759;DHT22;65701;45.588;5.186;2023-06-01T15:17:15;27.74;48.25
76759;DHT22;65701;45.588;5.186;2023-06-01T15:19:40;27.76;47.99
76759;DHT22;65701;45.588;5.186;2023-06-01T15:22:06;27.73;47.97
76759;DHT22;65701;45.588;5.186;2023-06-01T15:24:31;27.69;47.60
76759;DHT22;65701;45.588;5.186;2023-06-01T15:26:57;27.63;47.14
76759;DHT22;65701;45.588;5.186;2023-06-01T15:29:23;27.66;47.51
76759;DHT22;65701;45.588;5.186;2023-06-01T15:31:48;27.58;47.94
76759;DHT22;65701;45.588;5.186;2023-06-01T15:34:14;27.63;48.01
76759;DHT22;65701;45.588;5.186;2023-06-01T15:36:40;27.63;48.26
76759;DHT22;65701;45.588;5.186;2023-06-01T15:39:05;27.67;48.31
76759;DHT22;65701;45.588;5.186;2023-06-01T15:41:31;27.72;48.48
76759;DHT22;65701;45.588;5.186;2023-06-01T15:43:57;27.73;48.19
76759;DHT22;65701;45.588;5.186;2023-06-01T15:46:22;27.73;48.71
76759;DHT22;65701;45.588;5.186;2023-06-01T15:48:51;27.73;47.95
76759;DHT22;65701;45.588;5.186;2023-06-01T15:51:18;27.78;47.71
76759;DHT22;65701;45.588;5.186;2023-06-01T15:57:02;27.92;48.82
76759;DHT22;65701;45.588;5.186;2023-06-01T15:59:29;27.89;48.69
76759;DHT22;65701;45.588;5.186;2023-06-01T16:01:55;27.80;49.85
76759;DHT22;65701;45.588;5.186;2023-06-01T16:04:20;27.51;52.66
76759;DHT22;65701;45.588;5.186;2023-06-01T16:06:46;27.21;55.41
76759;DHT22;65701;45.588;5.186;2023-06-01T16:09:11;26.98;57.73
76759;DHT22;65701;45.588;5.186;2023-06-01T16:11:37;26.84;58.36
76759;DHT22;65701;45.588;5.186;2023-06-01T16:14:02;26.82;58.46
76759;DHT22;65701;45.588;5.186;2023-06-01T16:16:28;26.66;60.17
76759;DHT22;65701;45.588;5.186;2023-06-01T16:18:53;26.59;59.76
76759;DHT22;65701;45.588;5.186;2023-06-01T16:21:19;26.48;60.00
76759;DHT22;65701;45.588;5.186;2023-06-01T16:23:44;26.45;59.50
76759;DHT22;65701;45.588;5.186;2023-06-01T16:26:10;26.38;59.43
76759;DHT22;65701;45.588;5.186;2023-06-01T16:28:35;26.29;60.00
76759;DHT22;65701;45.588;5.186;2023-06-01T16:31:02;26.20;60.45
76759;DHT22;65701;45.588;5.186;2023-06-01T16:33:28;26.15;60.07
76759;DHT22;65701;45.588;5.186;2023-06-01T16:35:54;26.08;60.18
76759;DHT22;65701;45.588;5.186;2023-06-01T16:38:19;26.05;59.93
76759;DHT22;65701;45.588;5.186;2023-06-01T16:40:45;26.01;59.97
76759;DHT22;65701;45.588;5.186;2023-06-01T16:43:12;25.94;60.24
76759;DHT22;65701;45.588;5.186;2023-06-01T16:45:44;25.90;60.22
76759;DHT22;65701;45.588;5.186;2023-06-01T16:48:09;25.86;60.33
76759;DHT22;65701;45.588;5.186;2023-06-01T16:50:35;25.79;60.79
76759;DHT22;65701;45.588;5.186;2023-06-01T16:53:00;25.77;60.59
76759;DHT22;65701;45.588;5.186;2023-06-01T16:55:26;25.76;60.78
76759;DHT22;65701;45.588;5.186;2023-06-01T16:57:53;25.73;61.22
76759;DHT22;65701;45.588;5.186;2023-06-01T17:00:19;25.66;62.07
76759;DHT22;65701;45.588;5.186;2023-06-01T17:02:45;25.60;62.52
76759;DHT22;65701;45.588;5.186;2023-06-01T17:05:10;25.56;62.92
76759;DHT22;65701;45.588;5.186;2023-06-01T17:07:36;25.53;63.14
76759;DHT22;65701;45.588;5.186;2023-06-01T17:10:02;25.50;63.74
76759;DHT22;65701;45.588;5.186;2023-06-01T17:12:27;25.45;63.76
76759;DHT22;65701;45.588;5.186;2023-06-01T17:14:53;25.43;64.27
76759;DHT22;65701;45.588;5.186;2023-06-01T17:17:18;25.42;64.29
76759;DHT22;65701;45.588;5.186;2023-06-01T17:19:50;25.46;64.27
76759;DHT22;65701;45.588;5.186;2023-06-01T17:22:15;25.42;63.81
76759;DHT22;65701;45.588;5.186;2023-06-01T17:24:44;25.42;63.85
76759;DHT22;65701;45.588;5.186;2023-06-01T17:27:10;25.41;64.07
76759;DHT22;65701;45.588;5.186;2023-06-01T17:29:35;25.38;64.27
76759;DHT22;65701;45.588;5.186;2023-06-01T17:32:01;25.38;64.10
76759;DHT22;65701;45.588;5.186;2023-06-01T17:34:28;25.38;65.34
76759;DHT22;65701;45.588;5.186;2023-06-01T17:36:53;25.32;65.57
76759;DHT22;65701;45.588;5.186;2023-06-01T17:39:19;25.29;65.46
76759;DHT22;65701;45.588;5.186;2023-06-01T17:41:50;25.26;65.35
76759;DHT22;65701;45.588;5.186;2023-06-01T17:44:17;25.25;64.60
76759;DHT22;65701;45.588;5.186;2023-06-01T17:46:43;25.24;64.97
76759;DHT22;65701;45.588;5.186;2023-06-01T17:49:09;25.24;64.38
76759;DHT22;65701;45.588;5.186;2023-06-01T17:51:34;25.22;63.60
76759;DHT22;65701;45.588;5.186;2023-06-01T17:54:03;25.25;63.13
76759;DHT22;65701;45.588;5.186;2023-06-01T17:56:29;25.28;62.61
76759;DHT22;65701;45.588;5.186;2023-06-01T17:58:55;25.28;61.84
76759;DHT22;65701;45.588;5.186;2023-06-01T18:01:21;25.28;61.53
76759;DHT22;65701;45.588;5.186;2023-06-01T18:03:46;25.24;61.15
76759;DHT22;65701;45.588;5.186;2023-06-01T18:06:12;25.24;60.81
76759;DHT22;65701;45.588;5.186;2023-06-01T18:08:42;25.18;60.65
76759;DHT22;65701;45.588;5.186;2023-06-01T18:11:07;25.18;60.30
76759;DHT22;65701;45.588;5.186;2023-06-01T18:13:36;25.17;60.42
76759;DHT22;65701;45.588;5.186;2023-06-01T18:16:03;25.11;60.17
76759;DHT22;65701;45.588;5.186;2023-06-01T18:18:30;25.10;59.85
76759;DHT22;65701;45.588;5.186;2023-06-01T18:20:55;25.10;59.83
76759;DHT22;65701;45.588;5.186;2023-06-01T18:23:21;25.05;59.72
76759;DHT22;65701;45.588;5.186;2023-06-01T18:25:46;25.04;59.64
76759;DHT22;65701;45.588;5.186;2023-06-01T18:28:12;25.01;59.44
76759;DHT22;65701;45.588;5.186;2023-06-01T18:30:38;25.03;59.44
76759;DHT22;65701;45.588;5.186;2023-06-01T18:33:03;24.98;59.40
76759;DHT22;65701;45.588;5.186;2023-06-01T18:35:29;24.97;59.59
76759;DHT22;65701;45.588;5.186;2023-06-01T18:37:54;24.92;60.07
76759;DHT22;65701;45.588;5.186;2023-06-01T18:40:20;24.87;60.62
76759;DHT22;65701;45.588;5.186;2023-06-01T18:42:47;24.83;61.05
76759;DHT22;65701;45.588;5.186;2023-06-01T18:45:13;24.79;60.88
76759;DHT22;65701;45.588;5.186;2023-06-01T18:47:38;24.74;60.69
76759;DHT22;65701;45.588;5.186;2023-06-01T18:50:04;24.69;60.41
76759;DHT22;65701;45.588;5.186;2023-06-01T18:52:30;24.66;60.55
76759;DHT22;65701;45.588;5.186;2023-06-01T18:54:57;24.62;61.12
76759;DHT22;65701;45.588;5.186;2023-06-01T18:57:23;24.51;61.76
76759;DHT22;65701;45.588;5.186;2023-06-01T18:59:50;24.42;62.15
76759;DHT22;65701;45.588;5.186;2023-06-01T19:02:21;24.32;62.74
76759;DHT22;65701;45.588;5.186;2023-06-01T19:04:48;24.22;62.91
76759;DHT22;65701;45.588;5.186;2023-06-01T19:07:37;24.12;63.04
76759;DHT22;65701;45.588;5.186;2023-06-01T19:10:09;24.05;63.33
76759;DHT22;65701;45.588;5.186;2023-06-01T19:12:40;23.98;63.37
76759;DHT22;65701;45.588;5.186;2023-06-01T19:15:10;23.85;63.68
76759;DHT22;65701;45.588;5.186;2023-06-01T19:17:37;23.74;63.92
76759;DHT22;65701;45.588;5.186;2023-06-01T19:20:34;23.61;64.15
76759;DHT22;65701;45.588;5.186;2023-06-01T19:22:55;23.45;64.51
76759;DHT22;65701;45.588;5.186;2023-06-01T19:25:20;23.35;64.46
76759;DHT22;65701;45.588;5.186;2023-06-01T19:27:46;23.27;64.49
76759;DHT22;65701;45.588;5.186;2023-06-01T19:30:12;23.20;64.67
76759;DHT22;65701;45.588;5.186;2023-06-01T19:32:38;23.08;65.01
76759;DHT22;65701;45.588;5.186;2023-06-01T19:35:05;23.01;65.42
76759;DHT22;65701;45.588;5.186;2023-06-01T19:37:32;22.94;65.26
76759;DHT22;65701;45.588;5.186;2023-06-01T19:39:58;22.87;65.26
76759;DHT22;65701;45.588;5.186;2023-06-01T19:42:36;22.77;65.63
76759;DHT22;65701;45.588;5.186;2023-06-01T19:45:08;22.72;65.68
76759;DHT22;65701;45.588;5.186;2023-06-01T19:56:09;22.36;66.71
76759;DHT22;65701;45.588;5.186;2023-06-01T19:58:37;22.28;66.70
76759;DHT22;65701;45.588;5.186;2023-06-01T20:01:02;22.25;66.47
76759;DHT22;65701;45.588;5.186;2023-06-01T20:03:34;22.20;66.61
76759;DHT22;65701;45.588;5.186;2023-06-01T20:06:25;22.15;66.53
76759;DHT22;65701;45.588;5.186;2023-06-01T20:08:55;22.08;67.49
76759;DHT22;65701;45.588;5.186;2023-06-01T20:11:21;22.01;67.49
76759;DHT22;65701;45.588;5.186;2023-06-01T20:13:47;21.92;67.10
